Terminal Aerodrome Forecast
Issued by NWS

Home | Current Version | Previous Version | Graphics & Text | Print | Product List | Glossary On
Versions: 1 2 3 4 5 6 7 8 9 10 11 12 13 14
516
FTUS43 KTOP 201732
TAFFOE
TAF
KFOE 201732Z 2018/2118 22020G29KT P6SM SKC
     FM210000 20013KT P6SM SCT200
     FM210700 21009KT P6SM BKN250
     FM211100 29006KT P6SM BKN120
     FM211400 35011KT P6SM BKN090=

USA.gov is the U.S. government's official web portal to all federal, state and local government web resources and services.